• Join FlightAware (Why Join?)
  • Login
  • US Flag 
08:07PM EDT


 

Airport Tracker/Info


-or-


 

Live Flight TrackerFlight Track Log ✈ N904ER ✈ 12-Aug-2014 ✈ KFPR - KDED

Flight Track Log - Related Links

Times and Time Zones

All times are in EDT time to prevent confusion due to time zone crossing. See the N904ER flight status page for this flight to view local times or setup timezone preferences in your user account.

Time Position Orientation Groundspeed Altitude Reporting Facility
EDT Latitude Longitude Course Direction KTS MPH feet Rate Location/Type
11:12PM 27.6039 -80.4419 318° Northwest 109 125 3,700  Level Miami Center
11:13PM 27.6311 -80.4583 332° Northwest 115 132 4,300 600 Climbing Miami Center
11:14PM 27.6603 -80.4747 334° Northwest 112 129 5,000 720 Climbing Miami Center
11:15PM 27.6864 -80.4883 335° Northwest 111 128 5,800 720 Climbing Miami Center
11:16PM 27.7186 -80.4953 349° North 112 129 6,500 600 Climbing Miami Center
11:17PM 27.6543 -80.4709 318° Northwest  Level FlightAware Approximate
11:17PM 27.7472 -80.5197 323° Northwest 121 139 7,100  Level Miami Center
11:18PM 27.7794 -80.5447 326° Northwest 143 165 7,100  Level Miami Center
11:19PM 27.8200 -80.5658 335° Northwest 152 175 7,100  Level Miami Center
11:20PM 27.8594 -80.5864 335° Northwest 157 181 7,100 -60 Level Miami Center
11:21PM 27.9014 -80.6103 333° Northwest 161 185 7,000 -60 Descending Miami Center
11:22PM 27.9422 -80.6331 334° Northwest 160 184 7,000  Level Miami Center
11:23PM 27.9811 -80.6519 337° Northwest 159 183 7,000  Level Miami Center
11:24PM 28.0211 -80.6756 332° Northwest 157 181 7,000  Level Miami Center
11:25PM 28.0594 -80.6958 335° Northwest 157 181 7,000  Level Miami Center
11:26PM 28.0981 -80.7217 329° Northwest 157 181 7,000  Level Miami Center
11:27PM 28.1353 -80.7453 331° Northwest 157 181 7,000 -60 Level Miami Center
11:28PM 28.1744 -80.7667 334° Northwest 157 181 6,900  Descending Miami Center
11:29PM 28.2133 -80.7889 333° Northwest 157 181 7,000  Climbing Miami Center
11:30PM 28.2525 -80.8114 333° Northwest 157 181 7,000 -60 Level Miami Center
11:31PM 28.2911 -80.8342 333° Northwest 157 181 6,900  Descending Miami Center
11:32PM 28.3333 -80.8500 342° North 157 181 7,000  Climbing Orlando TRACON
11:33PM 28.3667 -80.8833 319° Northwest 152 175 7,000  Level Orlando TRACON
11:34PM 28.4000 -80.9000 336° Northwest 158 182 7,000  Level Orlando TRACON
11:35PM 28.4500 -80.9167 344° North 156 180 7,000  Level Orlando TRACON
11:36PM 28.4833 -80.9333 336° Northwest 152 175 7,000  Level Orlando TRACON
11:37PM 28.5167 -80.9667 319° Northwest 156 180 7,000  Level Orlando TRACON
11:38PM 28.5667 -80.9833 344° North 153 176 7,000  Level Orlando TRACON
11:39PM 28.6000 -81.0000 336° Northwest 151 174 7,000 -60 Level Orlando TRACON
11:40PM 28.6333 -81.0333 319° Northwest 155 178 6,900 -420 Descending Orlando TRACON
11:41PM 28.6833 -81.0500 344° North 173 199 6,200 -780 Descending Orlando TRACON
11:43PM 28.7614 -81.1069 327° Northwest 172 198 4,600 -840 Descending Jacksonville Center
11:44PM 28.8036 -81.1297 335° Northwest 164 189 3,800 -780 Descending Jacksonville Center
11:45PM 28.8436 -81.1503 336° Northwest 160 184 3,100 -420 Descending Jacksonville Center
11:46PM 28.8814 -81.1733 332° Northwest 140 161 3,000 -60 Descending Jacksonville Center
11:47PM 28.9108 -81.1942 328° Northwest 132 152 3,000 -60 Level Jacksonville Center
11:48PM 28.9425 -81.2150 330° Northwest 133 153 2,900 -60 Descending Jacksonville Center
11:49PM 28.9781 -81.2311 338° Northwest 134 154 2,900 -120 Level Jacksonville Center
11:50PM 29.0178 -81.2400 349° North 148 170 2,700 -300 Descending Jacksonville Center
11:51PM 29.0597 -81.2536 344° North 151 174 2,300 -420 Descending Jacksonville Center
11:51PM 29.0933 -81.2578 354° North 156 180 2,000 -180 Descending Jacksonville Center
11:52PM 29.1308 -81.2667 348° North 136 157 2,000 -240 Level Jacksonville Center
11:53PM 29.1686 -81.2756 348° North 145 167 1,600 -240 Descending Jacksonville Center
11:54PM 29.2019 -81.2583 24° Northeast 155 178 1,600  Level Jacksonville Center
11:55PM 29.2328 -81.2222 46° Northeast 143 165 1,600  Level Jacksonville Center
11:56PM 29.2467 -81.1767 71° East 148 170 1,600  Level Jacksonville Center
11:58PM 29.2214 -81.1533 141° Southeast 112 129 1,600  Level Jacksonville Center
11:59PM 29.1919 -81.1394 158° South 107 123 1,600 -60 Level Jacksonville Center
12:00AM 29.1711 -81.1447 192° South 78 90 1,500 -120 Descending Jacksonville Center